sensor_id;sensor_type;location;lat;lon;timestamp;P1;durP1;ratioP1;P2;durP2;ratioP2
69369;SDS011;56530;42.640;23.372;2022-08-27T00:00:16;15.90;;;4.70;;
69369;SDS011;56530;42.640;23.372;2022-08-27T00:02:43;11.60;;;3.60;;
69369;SDS011;56530;42.640;23.372;2022-08-27T00:05:09;13.35;;;3.83;;
69369;SDS011;56530;42.640;23.372;2022-08-27T00:07:35;8.32;;;4.05;;
69369;SDS011;56530;42.640;23.372;2022-08-27T00:10:01;8.25;;;4.95;;
69369;SDS011;56530;42.640;23.372;2022-08-27T00:12:29;12.75;;;4.05;;
69369;SDS011;56530;42.640;23.372;2022-08-27T00:14:54;12.23;;;4.97;;
69369;SDS011;56530;42.640;23.372;2022-08-27T00:17:19;9.65;;;5.45;;
69369;SDS011;56530;42.640;23.372;2022-08-27T00:19:45;15.82;;;5.05;;
69369;SDS011;56530;42.640;23.372;2022-08-27T00:22:11;7.80;;;4.50;;
69369;SDS011;56530;42.640;23.372;2022-08-27T00:24:36;11.27;;;3.95;;
69369;SDS011;56530;42.640;23.372;2022-08-27T00:27:02;18.73;;;4.95;;
69369;SDS011;56530;42.640;23.372;2022-08-27T00:29:28;12.10;;;4.38;;
69369;SDS011;56530;42.640;23.372;2022-08-27T00:31:54;9.85;;;4.97;;
69369;SDS011;56530;42.640;23.372;2022-08-27T00:34:20;13.93;;;4.28;;
69369;SDS011;56530;42.640;23.372;2022-08-27T00:36:46;12.10;;;4.07;;
69369;SDS011;56530;42.640;23.372;2022-08-27T00:39:12;11.20;;;4.13;;
69369;SDS011;56530;42.640;23.372;2022-08-27T00:41:38;13.50;;;4.38;;
69369;SDS011;56530;42.640;23.372;2022-08-27T00:44:05;9.60;;;3.70;;
69369;SDS011;56530;42.640;23.372;2022-08-27T00:46:44;17.63;;;3.97;;
69369;SDS011;56530;42.640;23.372;2022-08-27T00:49:18;11.18;;;4.47;;
69369;SDS011;56530;42.640;23.372;2022-08-27T00:51:47;14.80;;;3.85;;
69369;SDS011;56530;42.640;23.372;2022-08-27T00:54:17;9.20;;;3.78;;
69369;SDS011;56530;42.640;23.372;2022-08-27T00:56:43;10.90;;;4.03;;
69369;SDS011;56530;42.640;23.372;2022-08-27T00:59:10;8.10;;;4.00;;
69369;SDS011;56530;42.640;23.372;2022-08-27T01:01:39;11.57;;;4.00;;
69369;SDS011;56530;42.640;23.372;2022-08-27T01:04:25;10.57;;;3.95;;
69369;SDS011;56530;42.640;23.372;2022-08-27T01:06:50;14.57;;;3.88;;
69369;SDS011;56530;42.640;23.372;2022-08-27T01:09:16;9.70;;;3.58;;
69369;SDS011;56530;42.640;23.372;2022-08-27T01:11:42;12.00;;;4.18;;
69369;SDS011;56530;42.640;23.372;2022-08-27T01:14:08;12.48;;;4.43;;
69369;SDS011;56530;42.640;23.372;2022-08-27T01:16:35;10.77;;;3.67;;
69369;SDS011;56530;42.640;23.372;2022-08-27T01:19:03;6.53;;;4.13;;
69369;SDS011;56530;42.640;23.372;2022-08-27T01:21:44;8.88;;;3.63;;
69369;SDS011;56530;42.640;23.372;2022-08-27T01:27:02;10.82;;;4.22;;
69369;SDS011;56530;42.640;23.372;2022-08-27T01:29:28;9.45;;;4.00;;
69369;SDS011;56530;42.640;23.372;2022-08-27T01:31:57;7.65;;;3.75;;
69369;SDS011;56530;42.640;23.372;2022-08-27T01:34:24;9.77;;;4.13;;
69369;SDS011;56530;42.640;23.372;2022-08-27T01:36:50;14.33;;;4.20;;
69369;SDS011;56530;42.640;23.372;2022-08-27T01:39:15;12.05;;;4.20;;
69369;SDS011;56530;42.640;23.372;2022-08-27T01:41:41;16.92;;;4.53;;
69369;SDS011;56530;42.640;23.372;2022-08-27T01:44:06;9.82;;;4.07;;
69369;SDS011;56530;42.640;23.372;2022-08-27T01:46:31;11.82;;;4.18;;
69369;SDS011;56530;42.640;23.372;2022-08-27T01:48:57;8.13;;;3.58;;
69369;SDS011;56530;42.640;23.372;2022-08-27T01:51:22;9.48;;;4.80;;
69369;SDS011;56530;42.640;23.372;2022-08-27T01:53:48;6.00;;;3.83;;
69369;SDS011;56530;42.640;23.372;2022-08-27T01:56:14;7.10;;;3.72;;
69369;SDS011;56530;42.640;23.372;2022-08-27T01:58:40;11.82;;;3.83;;
69369;SDS011;56530;42.640;23.372;2022-08-27T02:01:08;12.45;;;4.55;;
69369;SDS011;56530;42.640;23.372;2022-08-27T02:03:36;10.82;;;4.00;;
69369;SDS011;56530;42.640;23.372;2022-08-27T02:06:03;10.88;;;4.15;;
69369;SDS011;56530;42.640;23.372;2022-08-27T02:08:31;9.48;;;3.97;;
69369;SDS011;56530;42.640;23.372;2022-08-27T02:10:57;16.45;;;4.00;;
69369;SDS011;56530;42.640;23.372;2022-08-27T02:13:22;7.72;;;3.60;;
69369;SDS011;56530;42.640;23.372;2022-08-27T02:15:48;8.73;;;4.25;;
69369;SDS011;56530;42.640;23.372;2022-08-27T02:18:13;11.33;;;4.20;;
69369;SDS011;56530;42.640;23.372;2022-08-27T02:20:39;13.87;;;4.80;;
69369;SDS011;56530;42.640;23.372;2022-08-27T02:23:05;12.40;;;4.40;;
69369;SDS011;56530;42.640;23.372;2022-08-27T02:25:31;13.20;;;4.30;;
69369;SDS011;56530;42.640;23.372;2022-08-27T02:27:57;14.35;;;4.20;;
69369;SDS011;56530;42.640;23.372;2022-08-27T02:30:24;9.15;;;3.90;;
69369;SDS011;56530;42.640;23.372;2022-08-27T02:32:50;9.55;;;4.05;;
69369;SDS011;56530;42.640;23.372;2022-08-27T02:35:17;13.25;;;4.20;;
69369;SDS011;56530;42.640;23.372;2022-08-27T02:37:43;8.85;;;4.15;;
69369;SDS011;56530;42.640;23.372;2022-08-27T02:40:10;15.73;;;4.53;;
69369;SDS011;56530;42.640;23.372;2022-08-27T02:42:37;7.22;;;3.90;;
69369;SDS011;56530;42.640;23.372;2022-08-27T02:45:03;11.30;;;3.90;;
69369;SDS011;56530;42.640;23.372;2022-08-27T02:47:32;9.75;;;3.72;;
69369;SDS011;56530;42.640;23.372;2022-08-27T02:49:58;12.68;;;4.75;;
69369;SDS011;56530;42.640;23.372;2022-08-27T02:52:25;17.13;;;4.55;;
69369;SDS011;56530;42.640;23.372;2022-08-27T02:54:51;15.50;;;5.03;;
69369;SDS011;56530;42.640;23.372;2022-08-27T02:57:17;16.98;;;4.90;;
69369;SDS011;56530;42.640;23.372;2022-08-27T02:59:42;10.75;;;5.25;;
69369;SDS011;56530;42.640;23.372;2022-08-27T03:02:08;15.55;;;5.63;;
69369;SDS011;56530;42.640;23.372;2022-08-27T03:04:34;13.55;;;4.80;;
69369;SDS011;56530;42.640;23.372;2022-08-27T03:07:00;10.65;;;4.57;;
69369;SDS011;56530;42.640;23.372;2022-08-27T03:09:25;10.90;;;4.90;;
69369;SDS011;56530;42.640;23.372;2022-08-27T03:11:50;9.90;;;5.10;;
69369;SDS011;56530;42.640;23.372;2022-08-27T03:14:17;13.65;;;4.97;;
69369;SDS011;56530;42.640;23.372;2022-08-27T03:16:43;14.23;;;5.45;;
69369;SDS011;56530;42.640;23.372;2022-08-27T03:19:09;13.82;;;4.78;;
69369;SDS011;56530;42.640;23.372;2022-08-27T03:21:34;7.20;;;4.82;;
69369;SDS011;56530;42.640;23.372;2022-08-27T03:24:01;10.52;;;4.97;;
69369;SDS011;56530;42.640;23.372;2022-08-27T03:26:27;13.55;;;5.10;;
69369;SDS011;56530;42.640;23.372;2022-08-27T03:28:53;16.40;;;5.45;;
69369;SDS011;56530;42.640;23.372;2022-08-27T03:31:19;13.75;;;5.72;;
69369;SDS011;56530;42.640;23.372;2022-08-27T03:33:51;12.60;;;5.43;;
69369;SDS011;56530;42.640;23.372;2022-08-27T03:36:20;16.50;;;4.90;;
69369;SDS011;56530;42.640;23.372;2022-08-27T03:38:46;12.20;;;4.90;;
69369;SDS011;56530;42.640;23.372;2022-08-27T03:41:11;8.27;;;4.95;;
69369;SDS011;56530;42.640;23.372;2022-08-27T03:43:37;8.68;;;4.75;;
69369;SDS011;56530;42.640;23.372;2022-08-27T03:46:03;17.33;;;5.55;;
69369;SDS011;56530;42.640;23.372;2022-08-27T03:48:29;14.57;;;5.20;;
69369;SDS011;56530;42.640;23.372;2022-08-27T03:50:56;6.63;;;4.28;;
69369;SDS011;56530;42.640;23.372;2022-08-27T03:53:21;16.45;;;5.32;;
69369;SDS011;56530;42.640;23.372;2022-08-27T03:55:47;15.80;;;4.70;;
69369;SDS011;56530;42.640;23.372;2022-08-27T03:58:12;10.13;;;4.22;;
69369;SDS011;56530;42.640;23.372;2022-08-27T04:00:39;10.23;;;5.00;;
69369;SDS011;56530;42.640;23.372;2022-08-27T04:03:05;24.77;;;6.28;;
69369;SDS011;56530;42.640;23.372;2022-08-27T04:05:31;5.50;;;3.95;;
69369;SDS011;56530;42.640;23.372;2022-08-27T04:07:58;10.13;;;5.28;;
69369;SDS011;56530;42.640;23.372;2022-08-27T04:10:23;13.68;;;4.40;;
69369;SDS011;56530;42.640;23.372;2022-08-27T04:12:49;9.43;;;4.88;;
69369;SDS011;56530;42.640;23.372;2022-08-27T04:15:15;14.65;;;5.15;;
69369;SDS011;56530;42.640;23.372;2022-08-27T04:17:40;11.82;;;4.45;;
69369;SDS011;56530;42.640;23.372;2022-08-27T04:20:06;8.88;;;4.47;;
69369;SDS011;56530;42.640;23.372;2022-08-27T04:22:33;15.10;;;4.40;;
69369;SDS011;56530;42.640;23.372;2022-08-27T04:24:59;10.20;;;3.97;;
69369;SDS011;56530;42.640;23.372;2022-08-27T04:27:25;9.95;;;4.85;;
69369;SDS011;56530;42.640;23.372;2022-08-27T04:29:54;10.48;;;4.22;;
69369;SDS011;56530;42.640;23.372;2022-08-27T04:32:21;14.98;;;4.50;;
69369;SDS011;56530;42.640;23.372;2022-08-27T04:34:47;17.05;;;4.15;;
69369;SDS011;56530;42.640;23.372;2022-08-27T04:37:12;6.65;;;3.33;;
69369;SDS011;56530;42.640;23.372;2022-08-27T04:39:38;10.25;;;4.53;;
69369;SDS011;56530;42.640;23.372;2022-08-27T04:42:03;8.98;;;4.15;;
69369;SDS011;56530;42.640;23.372;2022-08-27T04:44:30;11.80;;;3.80;;
69369;SDS011;56530;42.640;23.372;2022-08-27T04:47:02;17.50;;;5.00;;
69369;SDS011;56530;42.640;23.372;2022-08-27T04:49:29;8.65;;;3.63;;
69369;SDS011;56530;42.640;23.372;2022-08-27T04:51:54;13.27;;;4.60;;
69369;SDS011;56530;42.640;23.372;2022-08-27T04:54:20;11.43;;;4.97;;
69369;SDS011;56530;42.640;23.372;2022-08-27T04:56:48;15.40;;;5.10;;
69369;SDS011;56530;42.640;23.372;2022-08-27T04:59:13;11.53;;;5.30;;
69369;SDS011;56530;42.640;23.372;2022-08-27T05:01:40;14.20;;;5.28;;
69369;SDS011;56530;42.640;23.372;2022-08-27T05:04:06;9.27;;;4.95;;
69369;SDS011;56530;42.640;23.372;2022-08-27T05:06:33;8.43;;;4.57;;
69369;SDS011;56530;42.640;23.372;2022-08-27T05:09:00;10.25;;;4.65;;
69369;SDS011;56530;42.640;23.372;2022-08-27T05:11:26;13.10;;;5.15;;
69369;SDS011;56530;42.640;23.372;2022-08-27T05:13:56;12.38;;;5.15;;
69369;SDS011;56530;42.640;23.372;2022-08-27T05:16:23;13.02;;;5.60;;
69369;SDS011;56530;42.640;23.372;2022-08-27T05:18:49;17.83;;;5.28;;
69369;SDS011;56530;42.640;23.372;2022-08-27T05:21:22;18.33;;;5.63;;
69369;SDS011;56530;42.640;23.372;2022-08-27T05:23:49;15.40;;;5.18;;
69369;SDS011;56530;42.640;23.372;2022-08-27T05:26:15;14.02;;;5.05;;
69369;SDS011;56530;42.640;23.372;2022-08-27T05:28:41;10.88;;;4.90;;
69369;SDS011;56530;42.640;23.372;2022-08-27T05:31:08;13.32;;;4.47;;
69369;SDS011;56530;42.640;23.372;2022-08-27T05:33:35;9.15;;;4.63;;
69369;SDS011;56530;42.640;23.372;2022-08-27T05:36:03;10.85;;;4.60;;
69369;SDS011;56530;42.640;23.372;2022-08-27T05:38:29;9.45;;;4.55;;
69369;SDS011;56530;42.640;23.372;2022-08-27T05:41:05;8.45;;;4.20;;
69369;SDS011;56530;42.640;23.372;2022-08-27T05:43:36;9.75;;;4.20;;
69369;SDS011;56530;42.640;23.372;2022-08-27T05:46:06;7.65;;;5.00;;
69369;SDS011;56530;42.640;23.372;2022-08-27T05:48:33;9.38;;;4.40;;
69369;SDS011;56530;42.640;23.372;2022-08-27T05:53:42;12.65;;;4.75;;
69369;SDS011;56530;42.640;23.372;2022-08-27T05:56:19;9.30;;;4.80;;
69369;SDS011;56530;42.640;23.372;2022-08-27T05:58:46;9.68;;;4.30;;
69369;SDS011;56530;42.640;23.372;2022-08-27T06:01:31;13.68;;;4.47;;
69369;SDS011;56530;42.640;23.372;2022-08-27T06:04:00;11.07;;;5.35;;
69369;SDS011;56530;42.640;23.372;2022-08-27T06:06:26;13.10;;;4.63;;
69369;SDS011;56530;42.640;23.372;2022-08-27T06:08:52;14.27;;;5.18;;
69369;SDS011;56530;42.640;23.372;2022-08-27T06:11:18;14.80;;;6.57;;
69369;SDS011;56530;42.640;23.372;2022-08-27T06:13:44;13.88;;;5.18;;
69369;SDS011;56530;42.640;23.372;2022-08-27T06:16:10;18.10;;;5.47;;
69369;SDS011;56530;42.640;23.372;2022-08-27T06:18:38;13.85;;;4.88;;
69369;SDS011;56530;42.640;23.372;2022-08-27T06:21:04;18.65;;;5.13;;
69369;SDS011;56530;42.640;23.372;2022-08-27T06:23:30;8.43;;;4.97;;
69369;SDS011;56530;42.640;23.372;2022-08-27T06:25:56;13.63;;;5.30;;
69369;SDS011;56530;42.640;23.372;2022-08-27T06:28:23;13.73;;;4.40;;
69369;SDS011;56530;42.640;23.372;2022-08-27T06:31:00;9.32;;;5.20;;
69369;SDS011;56530;42.640;23.372;2022-08-27T06:33:26;11.05;;;4.82;;
69369;SDS011;56530;42.640;23.372;2022-08-27T06:35:52;14.38;;;4.82;;
69369;SDS011;56530;42.640;23.372;2022-08-27T06:38:17;14.85;;;5.55;;
69369;SDS011;56530;42.640;23.372;2022-08-27T06:40:43;15.85;;;5.55;;
69369;SDS011;56530;42.640;23.372;2022-08-27T06:43:09;11.00;;;4.80;;
69369;SDS011;56530;42.640;23.372;2022-08-27T06:45:37;20.35;;;5.43;;
69369;SDS011;56530;42.640;23.372;2022-08-27T06:48:03;9.40;;;6.13;;
69369;SDS011;56530;42.640;23.372;2022-08-27T06:50:29;12.18;;;5.03;;
69369;SDS011;56530;42.640;23.372;2022-08-27T06:52:54;17.35;;;5.22;;
69369;SDS011;56530;42.640;23.372;2022-08-27T06:55:20;17.85;;;5.28;;
69369;SDS011;56530;42.640;23.372;2022-08-27T06:57:45;17.70;;;6.05;;
69369;SDS011;56530;42.640;23.372;2022-08-27T07:00:11;19.15;;;6.35;;
69369;SDS011;56530;42.640;23.372;2022-08-27T07:02:37;9.77;;;5.50;;
69369;SDS011;56530;42.640;23.372;2022-08-27T07:05:03;12.77;;;5.88;;
69369;SDS011;56530;42.640;23.372;2022-08-27T07:07:30;10.25;;;4.63;;
69369;SDS011;56530;42.640;23.372;2022-08-27T07:09:57;15.80;;;4.97;;
69369;SDS011;56530;42.640;23.372;2022-08-27T07:12:22;11.57;;;4.97;;
69369;SDS011;56530;42.640;23.372;2022-08-27T07:14:49;10.93;;;6.15;;
69369;SDS011;56530;42.640;23.372;2022-08-27T07:17:15;10.90;;;4.88;;
69369;SDS011;56530;42.640;23.372;2022-08-27T07:19:41;9.65;;;5.50;;
69369;SDS011;56530;42.640;23.372;2022-08-27T07:22:07;14.85;;;6.20;;
69369;SDS011;56530;42.640;23.372;2022-08-27T07:24:32;11.73;;;5.03;;
69369;SDS011;56530;42.640;23.372;2022-08-27T07:26:58;18.25;;;6.00;;
69369;SDS011;56530;42.640;23.372;2022-08-27T07:29:23;12.32;;;5.50;;
69369;SDS011;56530;42.640;23.372;2022-08-27T07:31:48;13.70;;;5.57;;
69369;SDS011;56530;42.640;23.372;2022-08-27T07:34:14;9.50;;;5.80;;
69369;SDS011;56530;42.640;23.372;2022-08-27T07:36:39;17.15;;;5.60;;
69369;SDS011;56530;42.640;23.372;2022-08-27T07:39:05;13.20;;;5.38;;
69369;SDS011;56530;42.640;23.372;2022-08-27T07:41:32;17.70;;;5.80;;
69369;SDS011;56530;42.640;23.372;2022-08-27T07:44:17;14.02;;;5.47;;
69369;SDS011;56530;42.640;23.372;2022-08-27T07:46:49;19.50;;;6.57;;
69369;SDS011;56530;42.640;23.372;2022-08-27T07:49:15;12.75;;;5.60;;
69369;SDS011;56530;42.640;23.372;2022-08-27T07:51:41;11.32;;;4.68;;
69369;SDS011;56530;42.640;23.372;2022-08-27T07:54:07;16.30;;;5.75;;
69369;SDS011;56530;42.640;23.372;2022-08-27T07:56:33;11.27;;;5.35;;
69369;SDS011;56530;42.640;23.372;2022-08-27T07:58:58;14.38;;;5.53;;
69369;SDS011;56530;42.640;23.372;2022-08-27T08:01:24;17.95;;;5.75;;
69369;SDS011;56530;42.640;23.372;2022-08-27T08:03:49;15.02;;;4.82;;
69369;SDS011;56530;42.640;23.372;2022-08-27T08:06:15;20.50;;;5.07;;
69369;SDS011;56530;42.640;23.372;2022-08-27T08:08:41;7.60;;;5.35;;
69369;SDS011;56530;42.640;23.372;2022-08-27T08:11:07;11.15;;;5.60;;
69369;SDS011;56530;42.640;23.372;2022-08-27T08:13:35;10.07;;;5.10;;
69369;SDS011;56530;42.640;23.372;2022-08-27T08:16:01;14.02;;;5.20;;
69369;SDS011;56530;42.640;23.372;2022-08-27T08:18:26;13.30;;;5.65;;
69369;SDS011;56530;42.640;23.372;2022-08-27T08:20:57;9.43;;;5.53;;
69369;SDS011;56530;42.640;23.372;2022-08-27T08:23:25;21.13;;;5.20;;
69369;SDS011;56530;42.640;23.372;2022-08-27T08:25:50;17.13;;;5.55;;
69369;SDS011;56530;42.640;23.372;2022-08-27T08:28:16;15.55;;;5.22;;
69369;SDS011;56530;42.640;23.372;2022-08-27T08:30:42;16.25;;;5.57;;
69369;SDS011;56530;42.640;23.372;2022-08-27T08:33:08;9.48;;;4.72;;
69369;SDS011;56530;42.640;23.372;2022-08-27T08:35:36;20.13;;;5.72;;
69369;SDS011;56530;42.640;23.372;2022-08-27T08:38:02;11.32;;;4.65;;
69369;SDS011;56530;42.640;23.372;2022-08-27T08:42:58;15.73;;;5.22;;
69369;SDS011;56530;42.640;23.372;2022-08-27T08:45:28;13.77;;;5.47;;
69369;SDS011;56530;42.640;23.372;2022-08-27T08:50:34;18.58;;;5.70;;
69369;SDS011;56530;42.640;23.372;2022-08-27T08:53:32;14.23;;;5.68;;
69369;SDS011;56530;42.640;23.372;2022-08-27T08:56:10;12.32;;;4.45;;
69369;SDS011;56530;42.640;23.372;2022-08-27T08:58:45;20.85;;;5.35;;
69369;SDS011;56530;42.640;23.372;2022-08-27T09:01:14;9.98;;;4.55;;
69369;SDS011;56530;42.640;23.372;2022-08-27T09:03:46;19.13;;;5.45;;
69369;SDS011;56530;42.640;23.372;2022-08-27T09:08:51;18.25;;;5.05;;
69369;SDS011;56530;42.640;23.372;2022-08-27T09:11:24;16.85;;;5.55;;
69369;SDS011;56530;42.640;23.372;2022-08-27T09:13:59;15.70;;;4.57;;
69369;SDS011;56530;42.640;23.372;2022-08-27T09:16:30;16.40;;;4.70;;
69369;SDS011;56530;42.640;23.372;2022-08-27T09:18:56;14.20;;;4.93;;
69369;SDS011;56530;42.640;23.372;2022-08-27T09:26:40;7.78;;;4.18;;
69369;SDS011;56530;42.640;23.372;2022-08-27T09:29:07;17.38;;;4.78;;
69369;SDS011;56530;42.640;23.372;2022-08-27T09:34:23;21.80;;;4.15;;
69369;SDS011;56530;42.640;23.372;2022-08-27T09:36:56;14.40;;;4.22;;
69369;SDS011;56530;42.640;23.372;2022-08-27T09:39:32;9.43;;;4.57;;
69369;SDS011;56530;42.640;23.372;2022-08-27T09:42:00;21.35;;;4.85;;
69369;SDS011;56530;42.640;23.372;2022-08-27T09:44:26;15.15;;;4.47;;
69369;SDS011;56530;42.640;23.372;2022-08-27T09:46:59;15.50;;;5.25;;
69369;SDS011;56530;42.640;23.372;2022-08-27T09:49:26;12.18;;;4.90;;
69369;SDS011;56530;42.640;23.372;2022-08-27T09:51:53;13.30;;;4.97;;
69369;SDS011;56530;42.640;23.372;2022-08-27T09:54:28;15.35;;;4.28;;
69369;SDS011;56530;42.640;23.372;2022-08-27T09:56:56;13.80;;;4.30;;
69369;SDS011;56530;42.640;23.372;2022-08-27T10:04:24;17.15;;;4.47;;
69369;SDS011;56530;42.640;23.372;2022-08-27T10:12:38;13.40;;;4.45;;
69369;SDS011;56530;42.640;23.372;2022-08-27T10:15:23;16.88;;;4.90;;
69369;SDS011;56530;42.640;23.372;2022-08-27T10:17:59;15.93;;;5.47;;
69369;SDS011;56530;42.640;23.372;2022-08-27T10:25:36;13.85;;;5.05;;
69369;SDS011;56530;42.640;23.372;2022-08-27T12:26:36;14.50;;;5.50;;
69369;SDS011;56530;42.640;23.372;2022-08-27T12:31:48;9.60;;;4.55;;
69369;SDS011;56530;42.640;23.372;2022-08-27T12:34:19;13.33;;;5.40;;
69369;SDS011;56530;42.640;23.372;2022-08-27T12:36:47;14.10;;;5.45;;
69369;SDS011;56530;42.640;23.372;2022-08-27T12:39:14;15.10;;;5.63;;
69369;SDS011;56530;42.640;23.372;2022-08-27T12:41:46;21.98;;;6.43;;
69369;SDS011;56530;42.640;23.372;2022-08-27T12:44:28;13.13;;;5.40;;
69369;SDS011;56530;42.640;23.372;2022-08-27T12:47:01;15.35;;;7.10;;
69369;SDS011;56530;42.640;23.372;2022-08-27T12:49:40;17.23;;;5.90;;
69369;SDS011;56530;42.640;23.372;2022-08-27T12:52:12;10.93;;;4.50;;
69369;SDS011;56530;42.640;23.372;2022-08-27T12:57:49;21.30;;;7.75;;
69369;SDS011;56530;42.640;23.372;2022-08-27T13:01:05;15.68;;;6.35;;
69369;SDS011;56530;42.640;23.372;2022-08-27T13:03:51;12.88;;;5.28;;
69369;SDS011;56530;42.640;23.372;2022-08-27T13:06:29;19.05;;;6.70;;
69369;SDS011;56530;42.640;23.372;2022-08-27T13:08:58;14.23;;;5.13;;
69369;SDS011;56530;42.640;23.372;2022-08-27T13:11:27;6.72;;;4.38;;
69369;SDS011;56530;42.640;23.372;2022-08-27T13:14:04;18.35;;;4.20;;
69369;SDS011;56530;42.640;23.372;2022-08-27T13:16:30;16.85;;;5.38;;
69369;SDS011;56530;42.640;23.372;2022-08-27T13:18:56;15.38;;;5.28;;
69369;SDS011;56530;42.640;23.372;2022-08-27T13:21:22;9.38;;;4.68;;
69369;SDS011;56530;42.640;23.372;2022-08-27T13:23:53;10.77;;;4.93;;
69369;SDS011;56530;42.640;23.372;2022-08-27T13:26:21;13.18;;;5.22;;
69369;SDS011;56530;42.640;23.372;2022-08-27T13:28:48;11.45;;;5.25;;
69369;SDS011;56530;42.640;23.372;2022-08-27T13:31:14;8.50;;;4.22;;
69369;SDS011;56530;42.640;23.372;2022-08-27T13:33:40;16.17;;;5.68;;
69369;SDS011;56530;42.640;23.372;2022-08-27T13:36:06;11.90;;;6.85;;
69369;SDS011;56530;42.640;23.372;2022-08-27T13:38:35;12.10;;;5.15;;
69369;SDS011;56530;42.640;23.372;2022-08-27T13:41:06;9.85;;;4.53;;
69369;SDS011;56530;42.640;23.372;2022-08-27T13:43:34;13.25;;;5.43;;
69369;SDS011;56530;42.640;23.372;2022-08-27T13:46:06;8.50;;;4.38;;
69369;SDS011;56530;42.640;23.372;2022-08-27T13:48:40;10.75;;;4.55;;
69369;SDS011;56530;42.640;23.372;2022-08-27T13:51:07;17.10;;;4.55;;
69369;SDS011;56530;42.640;23.372;2022-08-27T13:53:33;16.50;;;4.60;;
69369;SDS011;56530;42.640;23.372;2022-08-27T13:56:25;18.70;;;4.72;;
69369;SDS011;56530;42.640;23.372;2022-08-27T13:58:53;11.48;;;4.85;;
69369;SDS011;56530;42.640;23.372;2022-08-27T14:01:24;11.65;;;4.68;;
69369;SDS011;56530;42.640;23.372;2022-08-27T14:06:24;10.40;;;4.10;;
69369;SDS011;56530;42.640;23.372;2022-08-27T14:09:25;13.38;;;5.00;;
69369;SDS011;56530;42.640;23.372;2022-08-27T14:11:59;13.52;;;5.35;;
69369;SDS011;56530;42.640;23.372;2022-08-27T14:14:25;17.83;;;4.53;;
69369;SDS011;56530;42.640;23.372;2022-08-27T14:16:55;13.90;;;4.88;;
69369;SDS011;56530;42.640;23.372;2022-08-27T14:19:26;17.33;;;4.78;;
69369;SDS011;56530;42.640;23.372;2022-08-27T14:21:53;15.20;;;4.30;;
69369;SDS011;56530;42.640;23.372;2022-08-27T14:24:19;9.35;;;4.32;;
69369;SDS011;56530;42.640;23.372;2022-08-27T14:26:53;8.77;;;4.90;;
69369;SDS011;56530;42.640;23.372;2022-08-27T14:29:19;12.80;;;4.50;;
69369;SDS011;56530;42.640;23.372;2022-08-27T14:31:45;12.93;;;4.20;;
69369;SDS011;56530;42.640;23.372;2022-08-27T14:34:12;12.88;;;4.20;;
69369;SDS011;56530;42.640;23.372;2022-08-27T14:36:39;17.48;;;4.65;;
69369;SDS011;56530;42.640;23.372;2022-08-27T14:39:05;11.18;;;3.78;;
69369;SDS011;56530;42.640;23.372;2022-08-27T14:41:31;18.42;;;4.45;;
69369;SDS011;56530;42.640;23.372;2022-08-27T14:43:57;13.05;;;4.30;;
69369;SDS011;56530;42.640;23.372;2022-08-27T14:46:24;16.98;;;5.03;;
69369;SDS011;56530;42.640;23.372;2022-08-27T14:48:51;10.80;;;4.30;;
69369;SDS011;56530;42.640;23.372;2022-08-27T14:51:22;8.15;;;4.20;;
69369;SDS011;56530;42.640;23.372;2022-08-27T14:53:50;10.65;;;3.90;;
69369;SDS011;56530;42.640;23.372;2022-08-27T14:56:17;12.50;;;4.47;;
69369;SDS011;56530;42.640;23.372;2022-08-27T14:58:43;11.43;;;5.07;;
69369;SDS011;56530;42.640;23.372;2022-08-27T15:01:09;13.95;;;5.40;;
69369;SDS011;56530;42.640;23.372;2022-08-27T15:03:36;11.30;;;4.50;;
69369;SDS011;56530;42.640;23.372;2022-08-27T15:06:02;10.07;;;4.47;;
69369;SDS011;56530;42.640;23.372;2022-08-27T15:08:28;13.27;;;4.40;;
69369;SDS011;56530;42.640;23.372;2022-08-27T15:10:54;13.25;;;4.47;;
69369;SDS011;56530;42.640;23.372;2022-08-27T15:13:19;11.45;;;4.38;;
69369;SDS011;56530;42.640;23.372;2022-08-27T15:15:45;11.10;;;4.53;;
69369;SDS011;56530;42.640;23.372;2022-08-27T15:18:10;18.52;;;5.25;;
69369;SDS011;56530;42.640;23.372;2022-08-27T15:20:36;16.70;;;4.80;;
69369;SDS011;56530;42.640;23.372;2022-08-27T15:23:01;11.88;;;4.57;;
69369;SDS011;56530;42.640;23.372;2022-08-27T15:25:27;14.88;;;4.95;;
69369;SDS011;56530;42.640;23.372;2022-08-27T15:27:54;14.02;;;4.70;;
69369;SDS011;56530;42.640;23.372;2022-08-27T15:30:25;14.45;;;5.03;;
69369;SDS011;56530;42.640;23.372;2022-08-27T15:32:52;14.73;;;5.78;;
69369;SDS011;56530;42.640;23.372;2022-08-27T15:35:20;15.15;;;5.30;;
69369;SDS011;56530;42.640;23.372;2022-08-27T15:37:49;16.55;;;4.07;;
69369;SDS011;56530;42.640;23.372;2022-08-27T15:40:15;10.40;;;4.72;;
69369;SDS011;56530;42.640;23.372;2022-08-27T15:42:42;14.38;;;5.20;;
69369;SDS011;56530;42.640;23.372;2022-08-27T15:45:09;14.15;;;4.35;;
69369;SDS011;56530;42.640;23.372;2022-08-27T15:47:35;9.77;;;5.10;;
69369;SDS011;56530;42.640;23.372;2022-08-27T15:50:01;18.20;;;5.53;;
69369;SDS011;56530;42.640;23.372;2022-08-27T15:52:26;14.52;;;4.70;;
69369;SDS011;56530;42.640;23.372;2022-08-27T15:54:52;7.68;;;4.03;;
69369;SDS011;56530;42.640;23.372;2022-08-27T15:57:18;8.02;;;5.18;;
69369;SDS011;56530;42.640;23.372;2022-08-27T15:59:44;12.82;;;6.25;;
69369;SDS011;56530;42.640;23.372;2022-08-27T16:02:18;12.02;;;5.80;;
69369;SDS011;56530;42.640;23.372;2022-08-27T16:04:45;14.02;;;6.85;;
69369;SDS011;56530;42.640;23.372;2022-08-27T16:07:12;14.45;;;5.63;;
69369;SDS011;56530;42.640;23.372;2022-08-27T16:09:38;20.15;;;5.70;;
69369;SDS011;56530;42.640;23.372;2022-08-27T16:12:04;14.18;;;6.57;;
69369;SDS011;56530;42.640;23.372;2022-08-27T16:14:30;13.73;;;5.75;;
69369;SDS011;56530;42.640;23.372;2022-08-27T16:16:56;14.13;;;6.38;;
69369;SDS011;56530;42.640;23.372;2022-08-27T16:19:22;12.50;;;6.78;;
69369;SDS011;56530;42.640;23.372;2022-08-27T16:21:48;20.38;;;6.30;;
69369;SDS011;56530;42.640;23.372;2022-08-27T16:24:14;20.42;;;7.22;;
69369;SDS011;56530;42.640;23.372;2022-08-27T16:26:40;15.38;;;5.95;;
69369;SDS011;56530;42.640;23.372;2022-08-27T16:29:05;23.88;;;5.68;;
69369;SDS011;56530;42.640;23.372;2022-08-27T16:31:31;13.55;;;9.00;;
69369;SDS011;56530;42.640;23.372;2022-08-27T16:33:59;14.20;;;5.95;;
69369;SDS011;56530;42.640;23.372;2022-08-27T16:36:24;10.85;;;5.35;;
69369;SDS011;56530;42.640;23.372;2022-08-27T16:38:53;13.48;;;5.90;;
69369;SDS011;56530;42.640;23.372;2022-08-27T16:41:19;14.38;;;6.47;;
69369;SDS011;56530;42.640;23.372;2022-08-27T16:43:46;12.77;;;7.15;;
69369;SDS011;56530;42.640;23.372;2022-08-27T16:46:12;13.95;;;7.72;;
69369;SDS011;56530;42.640;23.372;2022-08-27T16:49:51;17.00;;;6.22;;
69369;SDS011;56530;42.640;23.372;2022-08-27T16:52:35;15.38;;;6.40;;
69369;SDS011;56530;42.640;23.372;2022-08-27T16:55:01;16.02;;;6.43;;
69369;SDS011;56530;42.640;23.372;2022-08-27T16:57:27;11.63;;;6.15;;
69369;SDS011;56530;42.640;23.372;2022-08-27T16:59:53;13.20;;;6.95;;
69369;SDS011;56530;42.640;23.372;2022-08-27T17:02:29;16.38;;;7.20;;
69369;SDS011;56530;42.640;23.372;2022-08-27T17:04:55;12.45;;;5.95;;
69369;SDS011;56530;42.640;23.372;2022-08-27T17:07:21;17.35;;;6.57;;
69369;SDS011;56530;42.640;23.372;2022-08-27T17:09:51;15.10;;;6.00;;
69369;SDS011;56530;42.640;23.372;2022-08-27T17:12:17;11.65;;;5.85;;